Time;durP1;ratioP1;P1;durP2;ratioP2;P2;SDS_P1;SDS_P2;PMS_P1;PMS_P2;Temp;Humidity;BMP_temperature;BMP_pressure;BME280_temperature;BME280_humidity;BME280_pressure;Samples;Min_cycle;Max_cycle;Signal;HPM_P1;HPM_P2
2023/05/20 00:01:34;;;;;;;4.40;3.90;;;17.30;89.90;;;;;;5018326;28;20189;-64
2023/05/20 00:04:00;;;;;;;4.23;3.83;;;17.30;90.00;;;;;;5019717;28;20184;-64
2023/05/20 00:06:25;;;;;;;7.00;5.10;;;17.20;90.00;;;;;;5020191;28;20220;-64
2023/05/20 00:08:51;;;;;;;6.33;5.13;;;17.20;90.20;;;;;;5023706;28;20613;-64
2023/05/20 00:11:16;;;;;;;6.93;4.80;;;17.20;90.30;;;;;;5023425;28;20517;-64
2023/05/20 00:13:42;;;;;;;7.80;5.43;;;17.20;90.50;;;;;;5013831;28;20185;-64
2023/05/20 00:16:07;;;;;;;8.13;5.53;;;17.20;91.00;;;;;;5016664;28;20200;-64
2023/05/20 00:18:33;;;;;;;11.93;5.00;;;17.20;91.10;;;;;;5019282;28;20207;-64
2023/05/20 00:20:58;;;;;;;5.50;5.00;;;17.10;91.50;;;;;;5022872;28;20196;-64
2023/05/20 00:23:24;;;;;;;5.63;4.80;;;17.10;91.60;;;;;;5019478;28;20230;-64
2023/05/20 00:25:50;;;;;;;7.53;4.87;;;17.10;91.90;;;;;;5019664;28;20215;-65
2023/05/20 00:28:15;;;;;;;5.73;4.83;;;17.10;92.10;;;;;;5015306;28;20364;-65
2023/05/20 00:30:41;;;;;;;10.80;5.13;;;17.10;92.40;;;;;;5020225;28;20260;-65
2023/05/20 00:33:07;;;;;;;5.13;4.63;;;17.10;92.50;;;;;;5024858;28;20214;-65
2023/05/20 00:35:32;;;;;;;5.47;4.70;;;17.00;92.50;;;;;;5027889;28;20188;-65
2023/05/20 00:37:58;;;;;;;5.80;4.53;;;17.00;92.50;;;;;;5021364;28;20192;-65
2023/05/20 00:40:24;;;;;;;6.27;4.60;;;17.10;92.60;;;;;;5020298;28;20179;-65
2023/05/20 00:42:50;;;;;;;6.53;4.50;;;17.00;92.40;;;;;;5022235;28;20173;-65
2023/05/20 00:45:15;;;;;;;4.83;4.37;;;17.00;92.30;;;;;;5026454;28;20177;-65
2023/05/20 00:47:41;;;;;;;5.00;4.03;;;16.90;92.10;;;;;;5019672;28;20243;-64
2023/05/20 00:50:09;;;;;;;10.10;4.17;;;16.90;92.00;;;;;;5022519;28;20218;-65
2023/05/20 00:52:36;;;;;;;5.83;4.30;;;16.80;92.00;;;;;;5031444;28;20415;-65
2023/05/20 00:55:02;;;;;;;5.77;4.20;;;16.80;92.00;;;;;;5023216;28;20441;-65
2023/05/20 00:57:28;;;;;;;5.60;4.40;;;16.80;92.00;;;;;;5013065;28;20443;-65
2023/05/20 00:59:54;;;;;;;4.83;4.17;;;16.80;91.90;;;;;;5021526;28;20466;-65
2023/05/20 01:02:20;;;;;;;4.53;4.13;;;16.80;91.90;;;;;;5012406;28;20271;-65
2023/05/20 01:04:46;;;;;;;4.93;4.10;;;16.80;92.30;;;;;;5017541;28;20530;-65
2023/05/20 01:07:15;;;;;;;4.37;3.97;;;16.80;91.90;;;;;;5024404;28;20204;-65
2023/05/20 01:09:40;;;;;;;10.67;4.33;;;16.80;92.00;;;;;;5019858;28;20479;-65
2023/05/20 01:12:17;;;;;;;6.60;4.37;;;16.80;92.00;;;;;;5026488;28;20422;-65
2023/05/20 01:14:59;;;;;;;4.83;4.17;;;16.80;92.10;;;;;;5019456;28;20259;-64
2023/05/20 01:17:28;;;;;;;7.13;4.13;;;16.80;92.10;;;;;;5022184;28;20429;-65
2023/05/20 01:19:55;;;;;;;5.10;4.37;;;16.80;92.20;;;;;;5021911;28;20486;-65
2023/05/20 01:22:28;;;;;;;4.67;4.20;;;16.80;92.30;;;;;;5017712;28;20440;-65
2023/05/20 01:24:54;;;;;;;4.60;4.10;;;16.80;92.50;;;;;;5022305;28;20520;-65
2023/05/20 01:27:21;;;;;;;4.50;4.10;;;16.80;92.50;;;;;;5025486;28;20519;-65
2023/05/20 01:29:49;;;;;;;8.20;4.27;;;16.80;92.60;;;;;;5024369;28;20204;-65
2023/05/20 01:32:23;;;;;;;5.73;4.77;;;16.80;92.70;;;;;;5021045;28;20469;-65
2023/05/20 01:34:51;;;;;;;8.03;4.70;;;16.80;92.90;;;;;;5025177;28;20419;-64
2023/05/20 01:37:21;;;;;;;5.60;4.93;;;16.80;93.00;;;;;;5031708;28;20416;-64
2023/05/20 01:39:48;;;;;;;4.63;4.10;;;16.80;93.00;;;;;;5020696;28;20466;-64
2023/05/20 01:42:16;;;;;;;6.00;4.37;;;16.80;93.30;;;;;;5016308;28;22022;-64
2023/05/20 01:44:42;;;;;;;5.20;4.67;;;16.80;93.20;;;;;;5017461;28;20438;-64
2023/05/20 01:47:07;;;;;;;5.43;4.27;;;16.80;93.40;;;;;;5014531;28;20784;-64
2023/05/20 01:49:33;;;;;;;9.70;5.00;;;16.80;93.50;;;;;;5029447;28;20483;-64
2023/05/20 01:51:58;;;;;;;4.40;3.90;;;16.80;93.50;;;;;;5021524;28;20186;-64
2023/05/20 01:54:24;;;;;;;7.50;4.33;;;16.70;93.60;;;;;;5019772;28;20196;-64
2023/05/20 01:56:50;;;;;;;4.80;4.40;;;16.70;93.70;;;;;;5023722;28;20267;-64
2023/05/20 01:59:15;;;;;;;6.43;4.30;;;16.70;93.80;;;;;;5013797;28;20259;-64
2023/05/20 02:01:41;;;;;;;6.50;5.10;;;16.70;93.90;;;;;;5024491;28;20203;-64
2023/05/20 02:04:07;;;;;;;4.90;4.20;;;16.70;94.00;;;;;;5020235;28;20194;-64
2023/05/20 02:06:33;;;;;;;5.53;4.47;;;16.70;94.00;;;;;;5019414;28;20311;-64
2023/05/20 02:08:58;;;;;;;4.83;4.30;;;16.70;94.10;;;;;;5014611;28;20584;-64
2023/05/20 02:11:24;;;;;;;4.90;4.27;;;16.60;94.10;;;;;;5022717;28;20193;-64
2023/05/20 02:13:50;;;;;;;6.40;4.17;;;16.60;94.20;;;;;;5021139;28;20620;-64
2023/05/20 02:16:16;;;;;;;8.43;4.43;;;16.60;94.40;;;;;;5019094;28;20196;-64
2023/05/20 02:18:41;;;;;;;6.20;4.40;;;16.60;94.40;;;;;;5014491;28;20553;-64
2023/05/20 02:21:07;;;;;;;5.47;3.97;;;16.60;94.50;;;;;;5018871;28;20676;-64
2023/05/20 02:23:33;;;;;;;4.87;4.30;;;16.60;94.50;;;;;;5029245;28;20199;-64
2023/05/20 02:25:59;;;;;;;4.57;4.00;;;16.60;94.60;;;;;;5021758;28;20199;-64
2023/05/20 02:28:24;;;;;;;5.23;4.20;;;16.60;94.60;;;;;;5028736;28;20246;-64
2023/05/20 02:30:50;;;;;;;4.50;4.00;;;16.50;94.60;;;;;;5022146;28;20526;-64
2023/05/20 02:33:16;;;;;;;5.27;4.43;;;16.50;94.70;;;;;;5019288;28;20537;-64
2023/05/20 02:35:41;;;;;;;4.80;4.30;;;16.50;94.70;;;;;;5023398;28;20185;-64
2023/05/20 02:38:07;;;;;;;4.47;4.07;;;16.50;94.80;;;;;;5025501;28;20206;-64
2023/05/20 02:40:33;;;;;;;5.17;4.20;;;16.50;94.90;;;;;;5021565;28;20188;-65
2023/05/20 02:43:00;;;;;;;5.30;4.50;;;16.40;94.80;;;;;;5019861;28;20275;-65
2023/05/20 02:45:26;;;;;;;5.53;4.53;;;16.40;95.00;;;;;;5020275;28;20188;-65
2023/05/20 02:47:52;;;;;;;4.93;4.13;;;16.40;95.10;;;;;;5020373;28;20773;-64
2023/05/20 02:50:17;;;;;;;4.83;4.13;;;16.40;95.20;;;;;;5021597;28;20216;-64
2023/05/20 02:52:44;;;;;;;4.80;4.30;;;16.30;95.30;;;;;;5023985;28;20503;-64
2023/05/20 02:55:10;;;;;;;4.93;4.23;;;16.30;95.40;;;;;;5020855;28;20172;-64
2023/05/20 02:57:39;;;;;;;5.03;4.53;;;16.30;95.40;;;;;;5019110;28;20431;-64
2023/05/20 03:00:06;;;;;;;5.93;4.93;;;16.30;95.60;;;;;;5022180;28;20435;-64
2023/05/20 03:02:32;;;;;;;4.70;4.23;;;16.30;95.60;;;;;;5020842;28;20442;-65
2023/05/20 03:04:58;;;;;;;5.03;4.53;;;16.20;95.80;;;;;;5020177;28;20434;-64
2023/05/20 03:07:23;;;;;;;5.23;4.30;;;16.20;95.80;;;;;;5020539;28;20453;-65
2023/05/20 03:09:49;;;;;;;4.40;4.00;;;16.20;95.80;;;;;;5030488;28;20631;-64
2023/05/20 03:12:15;;;;;;;11.13;4.40;;;16.20;95.90;;;;;;5021517;28;20177;-65
2023/05/20 03:14:41;;;;;;;5.33;4.57;;;16.20;96.00;;;;;;5021360;28;20443;-65
2023/05/20 03:17:08;;;;;;;7.17;4.70;;;16.30;96.00;;;;;;5023403;28;20272;-65
2023/05/20 03:19:34;;;;;;;5.30;4.80;;;16.20;96.00;;;;;;5021068;28;20234;-65
2023/05/20 03:22:00;;;;;;;5.77;4.20;;;16.20;96.10;;;;;;5022332;28;20435;-64
2023/05/20 03:24:26;;;;;;;6.17;5.17;;;16.20;96.10;;;;;;5021267;28;20259;-64
2023/05/20 03:26:52;;;;;;;7.13;4.43;;;16.20;96.20;;;;;;5023593;28;20208;-65
2023/05/20 03:29:17;;;;;;;6.57;4.37;;;16.20;96.10;;;;;;5019354;28;20479;-65
2023/05/20 03:31:43;;;;;;;6.40;4.53;;;16.20;96.20;;;;;;5030610;28;20184;-65
2023/05/20 03:34:08;;;;;;;6.10;4.27;;;16.10;96.10;;;;;;5016073;28;20182;-65
2023/05/20 03:36:34;;;;;;;5.17;4.67;;;16.10;96.10;;;;;;5022081;28;20724;-64
2023/05/20 03:39:00;;;;;;;8.33;4.80;;;16.10;96.00;;;;;;5022509;28;20239;-64
2023/05/20 03:41:26;;;;;;;5.77;4.33;;;16.00;95.70;;;;;;5016127;28;20188;-64
2023/05/20 03:43:52;;;;;;;4.80;4.30;;;16.00;95.60;;;;;;5013774;28;20463;-65
2023/05/20 03:46:17;;;;;;;5.80;4.20;;;16.00;95.60;;;;;;5015677;28;20440;-64
2023/05/20 03:48:43;;;;;;;8.60;5.37;;;16.00;95.40;;;;;;5012274;28;20299;-64
2023/05/20 03:51:09;;;;;;;6.90;4.47;;;15.90;95.60;;;;;;5013402;28;20226;-64
2023/05/20 03:53:34;;;;;;;5.57;5.00;;;15.90;95.60;;;;;;5016638;28;20184;-64
2023/05/20 03:56:00;;;;;;;5.90;4.73;;;15.80;95.60;;;;;;5018363;28;20184;-64
2023/05/20 03:58:28;;;;;;;5.93;4.93;;;15.80;95.60;;;;;;5017329;28;20204;-64
2023/05/20 04:00:54;;;;;;;5.37;4.77;;;15.80;95.70;;;;;;5018996;28;20192;-64
2023/05/20 04:03:19;;;;;;;5.10;4.60;;;15.80;95.70;;;;;;5016118;28;21038;-64
2023/05/20 04:05:45;;;;;;;6.40;4.47;;;15.80;95.80;;;;;;5021202;28;20932;-64
2023/05/20 04:08:12;;;;;;;5.10;4.60;;;15.80;95.80;;;;;;5020106;28;20220;-64
2023/05/20 04:10:40;;;;;;;5.17;4.67;;;15.80;95.80;;;;;;5011808;28;20184;-64
2023/05/20 04:13:06;;;;;;;5.20;4.53;;;15.80;95.90;;;;;;5017811;28;20427;-64
2023/05/20 04:15:35;;;;;;;9.23;5.50;;;15.80;95.90;;;;;;5023929;28;20507;-64
2023/05/20 04:18:00;;;;;;;7.43;4.97;;;15.80;96.00;;;;;;5019731;28;20298;-64
2023/05/20 04:20:26;;;;;;;6.60;5.10;;;15.80;96.10;;;;;;5011602;28;20462;-64
2023/05/20 04:22:52;;;;;;;4.70;4.23;;;15.80;96.10;;;;;;5022090;28;20291;-64
2023/05/20 04:25:18;;;;;;;7.20;4.80;;;15.80;96.20;;;;;;5020172;28;20269;-64
2023/05/20 04:27:44;;;;;;;5.83;4.70;;;15.80;96.20;;;;;;5037889;28;20980;-64
2023/05/20 04:30:11;;;;;;;5.97;5.13;;;15.80;96.30;;;;;;5021281;28;20475;-65
2023/05/20 04:32:37;;;;;;;5.30;4.13;;;15.70;96.30;;;;;;5023923;28;20444;-65
2023/05/20 04:35:06;;;;;;;5.07;4.57;;;15.70;96.30;;;;;;5022470;28;20432;-65
2023/05/20 04:37:32;;;;;;;6.13;5.53;;;15.70;96.30;;;;;;5023030;28;20173;-65
2023/05/20 04:39:57;;;;;;;5.00;4.50;;;15.70;96.40;;;;;;5020850;28;20960;-65
2023/05/20 04:42:23;;;;;;;6.30;5.03;;;15.70;96.50;;;;;;5021331;28;20179;-65
2023/05/20 04:44:49;;;;;;;7.30;4.30;;;15.70;96.50;;;;;;5026748;28;20521;-65
2023/05/20 04:47:14;;;;;;;5.43;4.90;;;15.70;96.50;;;;;;5017555;28;20665;-65
2023/05/20 04:49:41;;;;;;;8.53;4.67;;;15.80;96.60;;;;;;5023339;28;20935;-65
2023/05/20 04:52:06;;;;;;;6.33;4.93;;;15.80;96.60;;;;;;5031412;28;20659;-65
2023/05/20 04:54:32;;;;;;;4.73;4.10;;;15.80;96.60;;;;;;5026765;28;20412;-65
2023/05/20 04:56:58;;;;;;;5.93;4.47;;;15.80;96.70;;;;;;5030712;28;20187;-65
2023/05/20 04:59:24;;;;;;;11.77;5.20;;;15.80;96.70;;;;;;5027916;28;20200;-65
2023/05/20 05:01:49;;;;;;;8.00;5.00;;;15.80;96.80;;;;;;5027817;28;20506;-65
2023/05/20 05:04:15;;;;;;;6.83;5.10;;;15.80;96.80;;;;;;5015987;28;20434;-65
2023/05/20 05:06:41;;;;;;;5.30;4.70;;;15.80;97.00;;;;;;5031715;28;20208;-65
2023/05/20 05:09:06;;;;;;;6.60;4.77;;;15.80;96.90;;;;;;5025372;28;20773;-65
2023/05/20 05:11:32;;;;;;;5.03;4.53;;;15.80;97.10;;;;;;5028703;28;20310;-65
2023/05/20 05:13:58;;;;;;;7.70;4.93;;;15.90;97.10;;;;;;5025665;28;20183;-65
2023/05/20 05:16:24;;;;;;;8.60;4.70;;;15.90;97.00;;;;;;5024840;28;20443;-65
2023/05/20 05:18:49;;;;;;;5.80;5.20;;;15.90;97.00;;;;;;5019364;28;20207;-65
2023/05/20 05:21:15;;;;;;;5.70;4.53;;;16.00;97.20;;;;;;5020494;28;20227;-65
2023/05/20 05:23:41;;;;;;;6.13;4.40;;;16.00;97.10;;;;;;5028947;28;20279;-64
2023/05/20 05:26:07;;;;;;;5.03;4.20;;;16.10;97.20;;;;;;5028994;28;20173;-65
2023/05/20 05:28:32;;;;;;;10.43;4.90;;;16.10;97.10;;;;;;5024804;28;20217;-65
2023/05/20 05:30:58;;;;;;;15.73;5.07;;;16.20;97.10;;;;;;5016279;28;20228;-65
2023/05/20 05:33:24;;;;;;;9.10;4.70;;;16.20;97.10;;;;;;5020738;28;20173;-65
2023/05/20 05:35:50;;;;;;;7.87;5.57;;;16.20;97.10;;;;;;5020155;28;20181;-65
2023/05/20 05:38:15;;;;;;;6.73;4.67;;;16.20;97.30;;;;;;5020756;28;20280;-65
2023/05/20 05:40:41;;;;;;;5.33;4.60;;;16.20;97.30;;;;;;5021463;28;20780;-65
2023/05/20 05:43:07;;;;;;;5.67;4.70;;;16.20;97.40;;;;;;5018195;28;20188;-65
2023/05/20 05:45:33;;;;;;;5.20;4.70;;;16.20;97.40;;;;;;5016160;28;20458;-65
2023/05/20 05:47:58;;;;;;;21.30;17.70;;;16.30;97.40;;;;;;5020457;28;20203;-65
2023/05/20 05:50:24;;;;;;;7.40;6.57;;;16.30;97.40;;;;;;5028370;28;20282;-65
2023/05/20 05:52:50;;;;;;;7.00;5.20;;;16.40;97.50;;;;;;5025701;28;20181;-65
2023/05/20 05:55:17;;;;;;;5.50;4.60;;;16.40;97.70;;;;;;5021788;28;20181;-65
2023/05/20 05:57:42;;;;;;;5.80;5.20;;;16.40;97.60;;;;;;5021655;28;20169;-65
2023/05/20 06:00:08;;;;;;;5.00;4.30;;;16.50;97.50;;;;;;5019736;28;20541;-65
2023/05/20 06:02:34;;;;;;;9.20;5.47;;;16.50;97.60;;;;;;5026240;28;20184;-65
2023/05/20 06:05:02;;;;;;;5.83;4.80;;;16.60;97.70;;;;;;5027518;28;20418;-65
2023/05/20 06:07:27;;;;;;;6.07;5.40;;;16.60;97.70;;;;;;5025990;28;20420;-65
2023/05/20 06:09:53;;;;;;;5.60;4.60;;;16.70;97.70;;;;;;5020596;28;20530;-65
2023/05/20 06:12:18;;;;;;;8.90;5.97;;;16.70;97.60;;;;;;5029001;28;20185;-65
2023/05/20 06:14:44;;;;;;;6.10;4.73;;;16.70;97.80;;;;;;5024871;28;20590;-66
2023/05/20 06:17:10;;;;;;;4.77;4.20;;;16.80;97.70;;;;;;5019031;28;20207;-65
2023/05/20 06:19:35;;;;;;;7.20;5.03;;;16.90;97.90;;;;;;5016062;28;20209;-65
2023/05/20 06:22:01;;;;;;;9.23;5.10;;;17.00;97.90;;;;;;5018448;28;20291;-65
2023/05/20 06:24:26;;;;;;;8.30;5.73;;;17.00;97.80;;;;;;5024320;28;20190;-65
2023/05/20 06:26:52;;;;;;;6.57;4.40;;;17.10;97.80;;;;;;5021426;28;20654;-65
2023/05/20 06:29:17;;;;;;;8.10;4.73;;;17.10;97.80;;;;;;5023146;28;20726;-65
2023/05/20 06:31:43;;;;;;;5.73;4.50;;;17.20;97.90;;;;;;5020535;28;20175;-65
2023/05/20 06:34:08;;;;;;;5.20;4.73;;;17.30;97.90;;;;;;5016689;28;20182;-65
2023/05/20 06:36:34;;;;;;;5.90;5.17;;;17.30;97.80;;;;;;5020821;28;20654;-65
2023/05/20 06:39:00;;;;;;;6.50;5.07;;;17.30;97.80;;;;;;5021455;28;20282;-65
2023/05/20 06:41:26;;;;;;;8.27;4.80;;;17.40;97.80;;;;;;5021432;28;20599;-65
2023/05/20 06:43:51;;;;;;;5.20;4.70;;;17.40;97.90;;;;;;5026115;28;20172;-65
2023/05/20 06:46:17;;;;;;;8.83;5.33;;;17.50;97.70;;;;;;5017736;28;20489;-65
2023/05/20 06:48:42;;;;;;;5.17;4.67;;;17.50;97.90;;;;;;5023540;28;20216;-65
2023/05/20 06:51:08;;;;;;;6.50;5.10;;;17.50;97.90;;;;;;5020664;28;20185;-65
2023/05/20 06:53:34;;;;;;;4.67;4.27;;;17.60;98.00;;;;;;5024869;28;20181;-65
2023/05/20 06:56:00;;;;;;;8.40;5.13;;;17.70;98.10;;;;;;5029285;28;20540;-65
2023/05/20 06:58:26;;;;;;;5.83;4.80;;;17.80;98.10;;;;;;5021899;28;20463;-65
2023/05/20 07:00:52;;;;;;;5.70;5.20;;;17.80;98.10;;;;;;5020685;28;20196;-65
2023/05/20 07:03:17;;;;;;;6.23;5.50;;;17.90;98.30;;;;;;5024023;28;21151;-65
2023/05/20 07:05:43;;;;;;;5.73;5.23;;;17.90;98.10;;;;;;5021670;28;20190;-65
2023/05/20 07:08:10;;;;;;;5.57;5.07;;;17.90;98.00;;;;;;5023612;28;20205;-65
2023/05/20 07:10:35;;;;;;;5.70;5.10;;;17.90;97.90;;;;;;5025038;28;20904;-65
2023/05/20 07:13:01;;;;;;;6.17;5.57;;;17.90;98.10;;;;;;5025712;28;20441;-65
2023/05/20 07:15:27;;;;;;;5.70;5.10;;;17.80;98.10;;;;;;5019299;28;20173;-65
2023/05/20 07:17:52;;;;;;;10.53;5.10;;;17.80;98.30;;;;;;5018973;28;20184;-65
2023/05/20 07:20:18;;;;;;;5.60;5.03;;;17.80;98.30;;;;;;5013061;28;20269;-66
2023/05/20 07:22:43;;;;;;;6.00;5.13;;;17.70;98.70;;;;;;5021786;28;20282;-65
2023/05/20 07:25:09;;;;;;;10.60;5.27;;;17.70;98.90;;;;;;5023271;28;20178;-66
2023/05/20 07:27:35;;;;;;;5.27;4.77;;;17.60;99.00;;;;;;5016576;28;20522;-65
2023/05/20 07:30:01;;;;;;;5.87;5.07;;;17.60;99.20;;;;;;5017033;28;20223;-65
2023/05/20 07:32:27;;;;;;;7.20;5.50;;;17.60;99.40;;;;;;5020722;28;20560;-65
2023/05/20 07:34:52;;;;;;;9.30;5.40;;;17.60;99.70;;;;;;5014537;28;20427;-65
2023/05/20 07:37:18;;;;;;;12.30;5.73;;;17.70;99.80;;;;;;5008251;28;20267;-65
2023/05/20 07:39:43;;;;;;;6.00;5.40;;;17.80;99.90;;;;;;5014729;28;20207;-65
2023/05/20 07:42:09;;;;;;;5.80;5.20;;;17.90;99.90;;;;;;5003873;28;20188;-65
2023/05/20 07:44:35;;;;;;;19.93;16.50;;;18.10;99.90;;;;;;5015564;28;20599;-65
2023/05/20 07:47:01;;;;;;;10.47;9.10;;;18.30;99.90;;;;;;5024889;28;20740;-65
2023/05/20 07:49:26;;;;;;;9.57;6.13;;;18.40;99.90;;;;;;5018766;28;20227;-65
2023/05/20 07:51:52;;;;;;;6.97;6.27;;;18.60;99.90;;;;;;5006347;28;20431;-65
2023/05/20 07:54:18;;;;;;;8.53;6.47;;;18.70;99.90;;;;;;5010635;28;20602;-65
2023/05/20 07:56:43;;;;;;;13.70;11.60;;;18.90;99.90;;;;;;5018786;28;20363;-65
2023/05/20 07:59:09;;;;;;;7.43;6.30;;;19.00;99.90;;;;;;5015813;28;20265;-65
2023/05/20 08:01:35;;;;;;;8.93;7.93;;;19.10;99.90;;;;;;5013340;28;20605;-65
2023/05/20 08:04:00;;;;;;;5.73;5.23;;;19.20;99.90;;;;;;5014093;28;20208;-65
2023/05/20 08:06:26;;;;;;;7.97;6.53;;;19.40;99.90;;;;;;5019313;28;20431;-65
2023/05/20 08:08:54;;;;;;;9.83;8.03;;;19.50;99.80;;;;;;5017872;28;20239;-65
2023/05/20 08:11:21;;;;;;;13.77;9.13;;;19.60;99.90;;;;;;5013121;28;20194;-65
2023/05/20 08:13:47;;;;;;;7.93;6.43;;;19.70;99.80;;;;;;5011946;28;20432;-65
2023/05/20 08:16:13;;;;;;;6.47;5.87;;;19.80;99.60;;;;;;5018106;28;20450;-64
2023/05/20 08:18:38;;;;;;;7.23;6.53;;;19.90;99.60;;;;;;5005029;28;20445;-64
2023/05/20 08:21:08;;;;;;;9.37;7.80;;;20.10;99.40;;;;;;5013251;28;20216;-64
2023/05/20 08:23:34;;;;;;;6.80;6.10;;;20.10;99.40;;;;;;5014286;28;20185;-64
2023/05/20 08:26:03;;;;;;;7.37;6.53;;;20.30;99.50;;;;;;5010097;28;21366;-65
2023/05/20 08:28:30;;;;;;;8.20;6.00;;;20.40;99.30;;;;;;5016986;28;21033;-66
2023/05/20 08:30:56;;;;;;;9.83;7.27;;;20.60;99.20;;;;;;5013269;28;20458;-66
2023/05/20 08:33:23;;;;;;;7.73;6.80;;;20.70;99.10;;;;;;5012647;28;20958;-66
2023/05/20 08:35:48;;;;;;;7.00;5.93;;;20.80;98.70;;;;;;5013266;28;20811;-66
2023/05/20 08:38:14;;;;;;;14.77;11.10;;;20.80;98.30;;;;;;5012474;28;20451;-66
2023/05/20 08:40:40;;;;;;;13.63;8.27;;;20.80;98.20;;;;;;5019960;28;20804;-66
2023/05/20 08:43:05;;;;;;;11.10;9.87;;;20.90;98.00;;;;;;5012378;28;20280;-66
2023/05/20 08:45:32;;;;;;;11.50;8.40;;;21.00;97.80;;;;;;5014213;28;20177;-66
2023/05/20 08:47:59;;;;;;;9.53;8.57;;;20.90;97.30;;;;;;5012689;28;21108;-66
2023/05/20 08:50:24;;;;;;;8.00;7.20;;;20.90;97.50;;;;;;5021021;28;20471;-66
2023/05/20 08:52:50;;;;;;;11.30;7.70;;;20.80;97.40;;;;;;5019841;28;20438;-65
2023/05/20 08:55:42;;;;;;;10.13;9.23;;;20.80;97.30;;;;;;5017579;28;20199;-66
2023/05/20 08:58:09;;;;;;;8.30;7.50;;;20.70;97.20;;;;;;5014730;28;20464;-66
2023/05/20 09:00:36;;;;;;;8.77;7.03;;;20.70;97.30;;;;;;5016813;28;20431;-66
2023/05/20 09:03:03;;;;;;;8.37;7.57;;;20.60;97.40;;;;;;5018172;28;20435;-66
2023/05/20 09:05:28;;;;;;;8.53;7.20;;;20.60;97.60;;;;;;5014397;28;20428;-65
2023/05/20 09:08:05;;;;;;;8.07;7.00;;;20.60;97.70;;;;;;5018295;28;20432;-65
2023/05/20 09:10:32;;;;;;;10.03;7.20;;;20.60;97.80;;;;;;5014133;28;20213;-66
2023/05/20 09:13:00;;;;;;;8.07;6.50;;;20.60;97.80;;;;;;5013981;28;21179;-66
2023/05/20 09:15:26;;;;;;;7.37;6.60;;;20.70;97.70;;;;;;5019172;28;20419;-65
2023/05/20 09:17:51;;;;;;;7.63;6.83;;;20.80;97.80;;;;;;5020119;28;20439;-66
2023/05/20 09:20:20;;;;;;;7.43;6.73;;;20.90;97.80;;;;;;5016573;28;20197;-65
2023/05/20 09:22:46;;;;;;;8.00;7.30;;;21.10;97.70;;;;;;5017148;28;20242;-66
2023/05/20 09:25:13;;;;;;;7.70;7.03;;;21.20;97.20;;;;;;5024626;28;20439;-66
2023/05/20 09:27:39;;;;;;;7.70;6.90;;;21.30;97.00;;;;;;5023087;28;20438;-66
2023/05/20 09:30:08;;;;;;;8.40;7.03;;;21.30;96.90;;;;;;5020850;28;20812;-66
2023/05/20 09:32:34;;;;;;;7.37;6.67;;;21.30;96.60;;;;;;5019681;28;20979;-65
2023/05/20 09:35:00;;;;;;;7.20;6.50;;;21.40;96.60;;;;;;5020069;28;20804;-66
2023/05/20 09:37:27;;;;;;;7.80;6.87;;;21.40;96.40;;;;;;5043161;28;20451;-66
2023/05/20 09:40:00;;;;;;;6.97;6.20;;;21.40;96.40;;;;;;5020134;28;20532;-66
2023/05/20 09:42:30;;;;;;;7.10;6.40;;;21.60;96.40;;;;;;5014270;28;20906;-66
2023/05/20 09:44:57;;;;;;;7.77;7.07;;;21.60;96.30;;;;;;5015491;28;21123;-66
2023/05/20 09:47:24;;;;;;;7.67;6.93;;;21.70;96.10;;;;;;5014208;28;20890;-66
2023/05/20 09:49:51;;;;;;;8.13;7.43;;;21.80;95.90;;;;;;5019117;28;20467;-65
2023/05/20 09:52:17;;;;;;;9.13;6.70;;;21.90;95.80;;;;;;5024545;28;21213;-66
2023/05/20 09:54:44;;;;;;;11.33;5.80;;;21.90;95.50;;;;;;5014646;28;20435;-66
2023/05/20 09:57:09;;;;;;;7.40;6.70;;;22.00;95.40;;;;;;5011956;28;20871;-66
2023/05/20 09:59:37;;;;;;;7.63;6.93;;;22.10;95.50;;;;;;5017111;28;20443;-66
2023/05/20 10:02:05;;;;;;;7.87;7.00;;;22.10;95.40;;;;;;5016717;28;20180;-66
2023/05/20 10:04:32;;;;;;;8.07;7.27;;;22.30;95.20;;;;;;5009020;28;20427;-66
2023/05/20 10:07:20;;;;;;;8.00;6.97;;;22.40;95.10;;;;;;5014938;28;21004;-65
2023/05/20 10:10:02;;;;;;;9.67;7.23;;;22.50;94.90;;;;;;5016964;28;20525;-66
2023/05/20 10:12:54;;;;;;;7.97;7.17;;;22.70;94.40;;;;;;5012387;28;20440;-66
2023/05/20 10:15:39;;;;;;;6.93;6.33;;;22.80;94.30;;;;;;5035363;28;20478;-66
2023/05/20 10:18:43;;;;;;;7.70;6.90;;;22.90;93.90;;;;;;5021635;28;20518;-67
2023/05/20 10:21:16;;;;;;;6.53;5.93;;;23.00;93.70;;;;;;5022288;28;20570;-66
2023/05/20 10:23:41;;;;;;;8.17;6.20;;;23.20;93.30;;;;;;5021552;28;20442;-66
2023/05/20 10:26:07;;;;;;;6.87;6.20;;;23.20;92.90;;;;;;5022250;28;20470;-66
2023/05/20 10:28:35;;;;;;;6.90;6.20;;;23.40;92.40;;;;;;5015925;28;20544;-66
2023/05/20 10:31:01;;;;;;;6.80;6.20;;;23.50;92.30;;;;;;5020000;28;20180;-66
2023/05/20 10:33:28;;;;;;;6.87;5.77;;;23.70;92.20;;;;;;5021046;28;20548;-66
2023/05/20 10:35:57;;;;;;;6.93;5.90;;;23.80;91.90;;;;;;5022942;28;20457;-66
2023/05/20 10:38:23;;;;;;;7.80;6.73;;;23.90;92.30;;;;;;5015591;28;20456;-66
2023/05/20 10:40:49;;;;;;;6.60;6.00;;;24.00;91.80;;;;;;5020054;28;20447;-66
2023/05/20 10:43:24;;;;;;;6.90;6.20;;;24.00;91.70;;;;;;5016515;28;20513;-66
2023/05/20 10:45:51;;;;;;;7.70;7.00;;;24.10;91.50;;;;;;5017390;28;20660;-66
2023/05/20 10:48:24;;;;;;;6.97;6.37;;;24.10;91.40;;;;;;5017046;28;20459;-66
2023/05/20 10:50:52;;;;;;;6.63;6.03;;;24.20;91.10;;;;;;5011660;28;20557;-66
2023/05/20 10:53:22;;;;;;;7.60;6.90;;;24.20;90.80;;;;;;5019150;28;20439;-66
2023/05/20 10:55:53;;;;;;;7.13;6.53;;;24.20;90.40;;;;;;5014709;28;21165;-66
2023/05/20 10:58:23;;;;;;;6.50;5.90;;;24.10;90.30;;;;;;5021570;28;20498;-66
2023/05/20 11:00:52;;;;;;;7.10;5.80;;;24.10;90.50;;;;;;5021796;28;20445;-66
2023/05/20 11:03:19;;;;;;;7.37;6.47;;;24.20;90.40;;;;;;5021983;28;20813;-66
2023/05/20 11:05:46;;;;;;;7.10;6.40;;;24.20;90.10;;;;;;5016222;28;20499;-66
2023/05/20 11:08:12;;;;;;;6.53;5.93;;;24.40;90.20;;;;;;5015641;28;20456;-66
2023/05/20 11:10:38;;;;;;;7.43;6.70;;;24.50;90.10;;;;;;5013667;28;20471;-66
2023/05/20 11:13:04;;;;;;;7.30;6.70;;;24.60;89.70;;;;;;5021016;28;21049;-66
2023/05/20 11:15:34;;;;;;;6.40;5.80;;;24.60;89.30;;;;;;5022323;28;20512;-66
2023/05/20 11:18:02;;;;;;;7.63;6.57;;;24.50;88.60;;;;;;5013207;28;20212;-66
2023/05/20 11:20:28;;;;;;;6.90;6.30;;;24.60;88.80;;;;;;5020020;28;20458;-66
2023/05/20 11:22:55;;;;;;;8.00;6.20;;;24.70;89.90;;;;;;5015908;28;20443;-66
2023/05/20 11:25:22;;;;;;;6.60;6.00;;;24.90;88.70;;;;;;5036855;28;20181;-66
2023/05/20 11:27:48;;;;;;;7.03;6.43;;;25.00;88.00;;;;;;5017806;28;21069;-66
2023/05/20 11:30:15;;;;;;;6.80;6.20;;;25.20;86.80;;;;;;5009607;28;20508;-66
2023/05/20 11:32:43;;;;;;;6.70;6.00;;;25.50;86.30;;;;;;5015436;28;20442;-66
2023/05/20 11:35:22;;;;;;;6.87;6.27;;;25.60;85.60;;;;;;5011251;28;20440;-66
2023/05/20 11:37:56;;;;;;;7.87;6.33;;;25.80;85.10;;;;;;5013237;28;20433;-66
2023/05/20 11:40:26;;;;;;;8.60;6.70;;;26.00;83.80;;;;;;5013783;28;20457;-66
2023/05/20 11:42:53;;;;;;;7.37;6.70;;;26.00;82.70;;;;;;5019046;28;20431;-66
2023/05/20 11:45:19;;;;;;;8.13;7.37;;;26.00;82.70;;;;;;5013725;28;20842;-66
2023/05/20 11:47:45;;;;;;;10.53;6.83;;;26.00;82.10;;;;;;5016029;28;20439;-66
2023/05/20 11:50:15;;;;;;;7.27;6.50;;;26.00;82.00;;;;;;5013322;28;20221;-66
2023/05/20 11:52:41;;;;;;;6.73;6.20;;;26.10;82.10;;;;;;5012219;28;20238;-66
2023/05/20 11:55:10;;;;;;;6.90;6.20;;;26.20;81.40;;;;;;5014174;28;20990;-66
2023/05/20 11:57:37;;;;;;;7.80;6.87;;;26.20;80.90;;;;;;5015388;28;20270;-66
2023/05/20 12:00:06;;;;;;;6.43;5.83;;;26.20;80.80;;;;;;5016826;28;20676;-66
2023/05/20 12:02:31;;;;;;;6.70;6.10;;;26.10;79.70;;;;;;5016938;28;20466;-66
2023/05/20 12:04:57;;;;;;;6.73;6.13;;;25.90;79.80;;;;;;5019337;28;20471;-66
2023/05/20 12:07:22;;;;;;;8.37;7.57;;;25.70;79.60;;;;;;5015709;28;20203;-66
2023/05/20 12:09:48;;;;;;;16.43;6.50;;;26.60;80.40;;;;;;5008633;28;20208;-66
2023/05/20 12:12:13;;;;;;;7.17;6.33;;;27.00;77.80;;;;;;5013878;28;20246;-66
2023/05/20 12:14:39;;;;;;;10.10;6.47;;;26.90;76.90;;;;;;5018297;28;20212;-66
2023/05/20 12:17:05;;;;;;;7.00;6.40;;;26.60;76.40;;;;;;5018038;28;20249;-66
2023/05/20 12:19:30;;;;;;;7.47;6.77;;;26.40;76.90;;;;;;5015027;28;20223;-66
2023/05/20 12:21:56;;;;;;;7.27;6.57;;;26.30;77.20;;;;;;5018952;28;20647;-66
2023/05/20 12:24:21;;;;;;;7.07;6.47;;;26.40;78.10;;;;;;5014447;28;20272;-66
2023/05/20 12:26:47;;;;;;;8.23;7.00;;;28.10;77.00;;;;;;5021273;28;20219;-66
2023/05/20 12:29:12;;;;;;;7.23;6.53;;;28.60;73.80;;;;;;5020084;28;20295;-67
2023/05/20 12:31:38;;;;;;;7.73;6.60;;;28.20;73.20;;;;;;5010559;28;20205;-66
2023/05/20 12:34:03;;;;;;;6.70;6.10;;;28.00;73.00;;;;;;5011808;28;20193;-66
2023/05/20 12:36:30;;;;;;;8.17;6.50;;;27.90;72.10;;;;;;5012034;28;20327;-66
2023/05/20 12:38:55;;;;;;;6.40;5.90;;;27.60;72.30;;;;;;5024814;28;20211;-66
2023/05/20 12:41:21;;;;;;;7.30;6.60;;;27.50;72.70;;;;;;5019120;28;20473;-66
2023/05/20 12:43:46;;;;;;;6.90;6.30;;;27.40;73.40;;;;;;5021767;28;20200;-66